sensor_id;sensor_type;location;lat;lon;timestamp;pressure;altitude;pressure_sealevel;temperature;humidity
72857;BME280;62742;52.136;4.500;2023-11-21T00:02:11;101155.47;;;6.86;100.00
72857;BME280;62742;52.136;4.500;2023-11-21T00:04:37;101152.00;;;6.87;100.00
72857;BME280;62742;52.136;4.500;2023-11-21T00:07:03;101155.50;;;6.92;100.00
72857;BME280;62742;52.136;4.500;2023-11-21T00:09:32;101162.47;;;6.95;100.00
72857;BME280;62742;52.136;4.500;2023-11-21T00:11:58;101165.09;;;7.00;100.00
72857;BME280;62742;52.136;4.500;2023-11-21T00:14:28;101172.97;;;7.06;100.00
72857;BME280;62742;52.136;4.500;2023-11-21T00:16:54;101166.88;;;7.08;100.00
72857;BME280;62742;52.136;4.500;2023-11-21T00:19:20;101165.13;;;7.12;100.00
72857;BME280;62742;52.136;4.500;2023-11-21T00:21:46;101170.38;;;7.15;100.00
72857;BME280;62742;52.136;4.500;2023-11-21T00:24:12;101159.06;;;7.16;100.00
72857;BME280;62742;52.136;4.500;2023-11-21T00:26:39;101162.56;;;7.20;100.00
72857;BME280;62742;52.136;4.500;2023-11-21T00:29:06;101158.22;;;7.20;100.00
72857;BME280;62742;52.136;4.500;2023-11-21T00:31:35;101152.13;;;7.21;100.00
72857;BME280;62742;52.136;4.500;2023-11-21T00:34:04;101160.84;;;7.25;100.00
72857;BME280;62742;52.136;4.500;2023-11-21T00:36:34;101164.34;;;7.27;100.00
72857;BME280;62742;52.136;4.500;2023-11-21T00:39:00;101165.19;;;7.29;100.00
72857;BME280;62742;52.136;4.500;2023-11-21T00:41:27;101159.97;;;7.27;100.00
72857;BME280;62742;52.136;4.500;2023-11-21T00:43:53;101166.09;;;7.31;100.00
72857;BME280;62742;52.136;4.500;2023-11-21T00:46:21;101173.06;;;7.35;100.00
72857;BME280;62742;52.136;4.500;2023-11-21T00:48:47;101169.59;;;7.39;100.00
72857;BME280;62742;52.136;4.500;2023-11-21T00:51:13;101173.06;;;7.43;100.00
72857;BME280;62742;52.136;4.500;2023-11-21T00:53:39;101179.22;;;7.45;100.00
72857;BME280;62742;52.136;4.500;2023-11-21T00:56:05;101175.72;;;7.46;100.00
72857;BME280;62742;52.136;4.500;2023-11-21T00:58:34;101172.25;;;7.47;100.00
72857;BME280;62742;52.136;4.500;2023-11-21T01:01:01;101172.25;;;7.47;100.00
72857;BME280;62742;52.136;4.500;2023-11-21T01:03:28;101177.47;;;7.47;100.00
72857;BME280;62742;52.136;4.500;2023-11-21T01:05:54;101183.53;;;7.43;100.00
72857;BME280;62742;52.136;4.500;2023-11-21T01:08:20;101188.78;;;7.41;100.00
72857;BME280;62742;52.136;4.500;2023-11-21T01:10:47;101191.41;;;7.40;100.00
72857;BME280;62742;52.136;4.500;2023-11-21T01:13:13;101192.25;;;7.40;100.00
72857;BME280;62742;52.136;4.500;2023-11-21T01:15:41;101197.47;;;7.39;100.00
72857;BME280;62742;52.136;4.500;2023-11-21T01:18:07;101198.34;;;7.38;100.00
72857;BME280;62742;52.136;4.500;2023-11-21T01:20:34;101203.59;;;7.35;100.00
72857;BME280;62742;52.136;4.500;2023-11-21T01:23:01;101208.81;;;7.35;100.00
72857;BME280;62742;52.136;4.500;2023-11-21T01:25:27;101208.81;;;7.41;100.00
72857;BME280;62742;52.136;4.500;2023-11-21T01:27:53;101213.19;;;7.42;100.00
72857;BME280;62742;52.136;4.500;2023-11-21T01:30:19;101217.53;;;7.46;100.00
72857;BME280;62742;52.136;4.500;2023-11-21T01:32:46;101216.72;;;7.52;100.00
72857;BME280;62742;52.136;4.500;2023-11-21T01:35:12;101218.44;;;7.53;100.00
72857;BME280;62742;52.136;4.500;2023-11-21T01:37:38;101214.06;;;7.53;100.00
72857;BME280;62742;52.136;4.500;2023-11-21T01:40:05;101228.91;;;7.56;100.00
72857;BME280;62742;52.136;4.500;2023-11-21T01:42:35;101220.19;;;7.55;100.00
72857;BME280;62742;52.136;4.500;2023-11-21T01:45:02;101224.56;;;7.59;100.00
72857;BME280;62742;52.136;4.500;2023-11-21T01:47:31;101228.06;;;7.64;100.00
72857;BME280;62742;52.136;4.500;2023-11-21T01:49:59;101237.66;;;7.64;100.00
72857;BME280;62742;52.136;4.500;2023-11-21T01:52:25;101239.41;;;7.66;100.00
72857;BME280;62742;52.136;4.500;2023-11-21T01:54:52;101246.38;;;7.67;100.00
72857;BME280;62742;52.136;4.500;2023-11-21T01:57:19;101243.78;;;7.71;100.00
72857;BME280;62742;52.136;4.500;2023-11-21T01:59:46;101246.41;;;7.71;100.00
72857;BME280;62742;52.136;4.500;2023-11-21T02:02:15;101246.38;;;7.66;100.00
72857;BME280;62742;52.136;4.500;2023-11-21T02:04:42;101247.25;;;7.73;100.00
72857;BME280;62742;52.136;4.500;2023-11-21T02:07:09;101245.53;;;7.76;100.00
72857;BME280;62742;52.136;4.500;2023-11-21T02:09:36;101251.63;;;7.80;100.00
72857;BME280;62742;52.136;4.500;2023-11-21T02:12:04;101244.66;;;7.80;100.00
72857;BME280;62742;52.136;4.500;2023-11-21T02:14:31;101251.66;;;7.81;100.00
72857;BME280;62742;52.136;4.500;2023-11-21T02:16:57;101253.38;;;7.84;100.00
72857;BME280;62742;52.136;4.500;2023-11-21T02:19:23;101256.00;;;7.76;100.00
72857;BME280;62742;52.136;4.500;2023-11-21T02:21:51;101259.50;;;7.83;100.00
72857;BME280;62742;52.136;4.500;2023-11-21T02:24:22;101267.38;;;7.88;100.00
72857;BME280;62742;52.136;4.500;2023-11-21T02:26:48;101272.59;;;7.89;100.00
72857;BME280;62742;52.136;4.500;2023-11-21T02:29:20;101273.47;;;7.90;100.00
72857;BME280;62742;52.136;4.500;2023-11-21T02:31:52;101268.25;;;7.94;100.00
72857;BME280;62742;52.136;4.500;2023-11-21T02:34:20;101264.75;;;7.97;100.00
72857;BME280;62742;52.136;4.500;2023-11-21T02:36:48;101271.75;;;7.99;100.00
72857;BME280;62742;52.136;4.500;2023-11-21T02:39:18;101263.88;;;8.01;100.00
72857;BME280;62742;52.136;4.500;2023-11-21T02:41:47;101272.63;;;8.04;100.00
72857;BME280;62742;52.136;4.500;2023-11-21T02:44:14;101263.03;;;8.08;100.00
72857;BME280;62742;52.136;4.500;2023-11-21T02:46:40;101262.16;;;8.11;100.00
72857;BME280;62742;52.136;4.500;2023-11-21T02:49:06;101263.94;;;8.15;100.00
72857;BME280;62742;52.136;4.500;2023-11-21T02:51:33;101254.31;;;8.15;100.00
72857;BME280;62742;52.136;4.500;2023-11-21T02:53:59;101256.94;;;8.21;100.00
72857;BME280;62742;52.136;4.500;2023-11-21T02:56:28;101253.47;;;8.24;100.00
72857;BME280;62742;52.136;4.500;2023-11-21T02:58:55;101257.81;;;8.34;100.00
72857;BME280;62742;52.136;4.500;2023-11-21T03:01:22;101259.56;;;8.38;100.00
72857;BME280;62742;52.136;4.500;2023-11-21T03:03:49;101268.31;;;8.23;100.00
72857;BME280;62742;52.136;4.500;2023-11-21T03:06:19;101270.00;;;8.11;100.00
72857;BME280;62742;52.136;4.500;2023-11-21T03:08:45;101273.50;;;8.03;100.00
72857;BME280;62742;52.136;4.500;2023-11-21T03:11:12;101279.59;;;8.04;100.00
72857;BME280;62742;52.136;4.500;2023-11-21T03:13:43;101272.63;;;8.06;100.00
72857;BME280;62742;52.136;4.500;2023-11-21T03:16:09;101270.00;;;8.11;100.00
72857;BME280;62742;52.136;4.500;2023-11-21T03:18:38;101270.88;;;8.13;100.00
72857;BME280;62742;52.136;4.500;2023-11-21T03:21:04;101282.25;;;8.15;100.00
72857;BME280;62742;52.136;4.500;2023-11-21T03:23:32;101276.13;;;8.17;100.00
72857;BME280;62742;52.136;4.500;2023-11-21T03:25:58;101275.28;;;8.20;100.00
72857;BME280;62742;52.136;4.500;2023-11-21T03:28:25;101286.63;;;8.20;100.00
72857;BME280;62742;52.136;4.500;2023-11-21T03:30:55;101297.94;;;8.16;100.00
72857;BME280;62742;52.136;4.500;2023-11-21T03:33:22;101302.28;;;8.13;100.00
72857;BME280;62742;52.136;4.500;2023-11-21T03:35:48;101290.97;;;8.15;100.00
72857;BME280;62742;52.136;4.500;2023-11-21T03:38:15;101302.31;;;8.17;100.00
72857;BME280;62742;52.136;4.500;2023-11-21T03:40:42;101299.72;;;8.22;100.00
72857;BME280;62742;52.136;4.500;2023-11-21T03:43:08;101301.44;;;8.23;100.00
72857;BME280;62742;52.136;4.500;2023-11-21T03:45:34;101303.19;;;8.27;100.00
72857;BME280;62742;52.136;4.500;2023-11-21T03:48:00;101315.41;;;8.28;100.00
72857;BME280;62742;52.136;4.500;2023-11-21T03:50:30;101308.44;;;8.30;100.00
72857;BME280;62742;52.136;4.500;2023-11-21T03:52:56;101319.78;;;8.29;100.00
72857;BME280;62742;52.136;4.500;2023-11-21T03:55:23;101320.66;;;8.34;100.00
72857;BME280;62742;52.136;4.500;2023-11-21T03:57:51;101318.91;;;8.39;100.00
72857;BME280;62742;52.136;4.500;2023-11-21T04:00:17;101324.19;;;8.42;100.00
72857;BME280;62742;52.136;4.500;2023-11-21T04:02:45;101339.88;;;8.41;100.00
72857;BME280;62742;52.136;4.500;2023-11-21T04:05:11;101325.97;;;8.53;100.00
72857;BME280;62742;52.136;4.500;2023-11-21T04:07:39;101329.44;;;8.52;100.00
72857;BME280;62742;52.136;4.500;2023-11-21T04:10:06;101335.53;;;8.54;100.00
72857;BME280;62742;52.136;4.500;2023-11-21T04:12:38;101340.81;;;8.61;100.00
72857;BME280;62742;52.136;4.500;2023-11-21T04:15:05;101341.69;;;8.67;100.00
72857;BME280;62742;52.136;4.500;2023-11-21T04:17:34;101350.41;;;8.67;100.00
72857;BME280;62742;52.136;4.500;2023-11-21T04:20:03;101346.06;;;8.66;100.00
72857;BME280;62742;52.136;4.500;2023-11-21T04:22:42;101350.41;;;8.70;100.00
72857;BME280;62742;52.136;4.500;2023-11-21T04:25:11;101353.03;;;8.75;100.00
72857;BME280;62742;52.136;4.500;2023-11-21T04:27:40;101369.63;;;8.75;100.00
72857;BME280;62742;52.136;4.500;2023-11-21T04:30:09;101358.28;;;8.73;100.00
72857;BME280;62742;52.136;4.500;2023-11-21T04:32:36;101361.75;;;8.74;100.00
72857;BME280;62742;52.136;4.500;2023-11-21T04:35:03;101367.00;;;8.75;100.00
72857;BME280;62742;52.136;4.500;2023-11-21T04:37:29;101367.88;;;8.77;100.00
72857;BME280;62742;52.136;4.500;2023-11-21T04:39:56;101367.00;;;8.71;100.00
72857;BME280;62742;52.136;4.500;2023-11-21T04:42:22;101369.63;;;8.63;100.00
72857;BME280;62742;52.136;4.500;2023-11-21T04:44:49;101382.72;;;8.60;100.00
72857;BME280;62742;52.136;4.500;2023-11-21T04:47:16;101377.47;;;8.60;100.00
72857;BME280;62742;52.136;4.500;2023-11-21T04:49:45;101390.53;;;8.54;100.00
72857;BME280;62742;52.136;4.500;2023-11-21T04:52:15;101373.97;;;8.46;100.00
72857;BME280;62742;52.136;4.500;2023-11-21T04:54:42;101390.53;;;8.46;100.00
72857;BME280;62742;52.136;4.500;2023-11-21T04:57:08;101389.59;;;8.35;100.00
72857;BME280;62742;52.136;4.500;2023-11-21T04:59:35;101395.69;;;8.26;100.00
72857;BME280;62742;52.136;4.500;2023-11-21T05:02:02;101395.69;;;8.23;100.00
72857;BME280;62742;52.136;4.500;2023-11-21T05:04:28;101408.75;;;8.15;100.00
72857;BME280;62742;52.136;4.500;2023-11-21T05:06:54;101407.00;;;8.17;100.00
72857;BME280;62742;52.136;4.500;2023-11-21T05:09:21;101415.75;;;8.13;100.00
72857;BME280;62742;52.136;4.500;2023-11-21T05:11:48;101417.44;;;8.07;100.00
72857;BME280;62742;52.136;4.500;2023-11-21T05:14:16;101430.53;;;8.07;100.00
72857;BME280;62742;52.136;4.500;2023-11-21T05:16:44;101429.63;;;7.97;100.00
72857;BME280;62742;52.136;4.500;2023-11-21T05:19:10;101429.63;;;7.98;100.00
72857;BME280;62742;52.136;4.500;2023-11-21T05:21:38;101439.25;;;8.05;100.00
72857;BME280;62742;52.136;4.500;2023-11-21T05:24:05;101434.03;;;8.09;100.00
72857;BME280;62742;52.136;4.500;2023-11-21T05:26:31;101439.28;;;8.13;100.00
72857;BME280;62742;52.136;4.500;2023-11-21T05:28:57;101437.56;;;8.24;100.00
72857;BME280;62742;52.136;4.500;2023-11-21T05:31:23;101442.81;;;8.26;100.00
72857;BME280;62742;52.136;4.500;2023-11-21T05:33:50;101449.84;;;8.30;100.00
72857;BME280;62742;52.136;4.500;2023-11-21T05:36:17;101448.09;;;8.38;100.00
72857;BME280;62742;52.136;4.500;2023-11-21T05:38:43;101458.63;;;8.45;100.00
72857;BME280;62742;52.136;4.500;2023-11-21T05:41:10;101454.31;;;8.56;100.00
72857;BME280;62742;52.136;4.500;2023-11-21T05:43:39;101449.97;;;8.63;100.00
72857;BME280;62742;52.136;4.500;2023-11-21T05:46:06;101450.00;;;8.76;100.00
72857;BME280;62742;52.136;4.500;2023-11-21T05:48:33;101454.38;;;8.87;100.00
72857;BME280;62742;52.136;4.500;2023-11-21T05:50:59;101465.72;;;8.95;100.00
72857;BME280;62742;52.136;4.500;2023-11-21T05:53:27;101460.47;;;8.98;100.00
72857;BME280;62742;52.136;4.500;2023-11-21T05:55:53;101467.47;;;9.08;100.00
72857;BME280;62742;52.136;4.500;2023-11-21T05:58:19;101472.72;;;9.13;100.00
72857;BME280;62742;52.136;4.500;2023-11-21T06:00:45;101478.84;;;9.12;100.00
72857;BME280;62742;52.136;4.500;2023-11-21T06:03:12;101485.84;;;9.24;100.00
72857;BME280;62742;52.136;4.500;2023-11-21T06:05:38;101473.59;;;9.30;100.00
72857;BME280;62742;52.136;4.500;2023-11-21T06:08:04;101482.34;;;9.34;100.00
72857;BME280;62742;52.136;4.500;2023-11-21T06:10:32;101491.97;;;9.38;100.00
72857;BME280;62742;52.136;4.500;2023-11-21T06:12:58;101494.56;;;9.29;100.00
72857;BME280;62742;52.136;4.500;2023-11-21T06:15:24;101490.22;;;9.28;100.00
72857;BME280;62742;52.136;4.500;2023-11-21T06:17:51;101499.84;;;9.23;100.00
72857;BME280;62742;52.136;4.500;2023-11-21T06:20:20;101502.44;;;9.20;100.00
72857;BME280;62742;52.136;4.500;2023-11-21T06:22:48;101504.19;;;9.11;100.00
72857;BME280;62742;52.136;4.500;2023-11-21T06:25:16;101507.69;;;9.07;100.00
72857;BME280;62742;52.136;4.500;2023-11-21T06:27:44;101512.06;;;9.04;100.00
72857;BME280;62742;52.136;4.500;2023-11-21T06:30:11;101512.03;;;8.96;100.00
72857;BME280;62742;52.136;4.500;2023-11-21T06:32:39;101519.00;;;8.86;100.00
72857;BME280;62742;52.136;4.500;2023-11-21T06:35:06;101521.63;;;8.92;100.00
72857;BME280;62742;52.136;4.500;2023-11-21T06:37:34;101524.28;;;8.95;100.00
72857;BME280;62742;52.136;4.500;2023-11-21T06:40:00;101528.63;;;8.92;100.00
72857;BME280;62742;52.136;4.500;2023-11-21T06:42:26;101539.13;;;8.92;100.00
72857;BME280;62742;52.136;4.500;2023-11-21T06:44:54;101537.34;;;8.88;100.00
72857;BME280;62742;52.136;4.500;2023-11-21T06:47:25;101546.97;;;8.96;100.00
72857;BME280;62742;52.136;4.500;2023-11-21T06:49:52;101547.84;;;8.95;100.00
72857;BME280;62742;52.136;4.500;2023-11-21T06:52:19;101550.47;;;9.00;100.00
72857;BME280;62742;52.136;4.500;2023-11-21T06:54:47;101560.97;;;9.06;100.00
72857;BME280;62742;52.136;4.500;2023-11-21T06:57:15;101561.88;;;9.17;100.00
72857;BME280;62742;52.136;4.500;2023-11-21T06:59:41;101568.00;;;9.32;100.00
72857;BME280;62742;52.136;4.500;2023-11-21T07:02:08;101565.41;;;9.35;100.00
72857;BME280;62742;52.136;4.500;2023-11-21T07:04:35;101572.38;;;9.39;100.00
72857;BME280;62742;52.136;4.500;2023-11-21T07:07:02;101575.00;;;9.41;100.00
72857;BME280;62742;52.136;4.500;2023-11-21T07:09:29;101569.78;;;9.47;100.00
72857;BME280;62742;52.136;4.500;2023-11-21T07:11:56;101578.53;;;9.52;100.00
72857;BME280;62742;52.136;4.500;2023-11-21T07:14:23;101575.00;;;9.41;100.00
72857;BME280;62742;52.136;4.500;2023-11-21T07:16:49;101575.00;;;9.38;100.00
72857;BME280;62742;52.136;4.500;2023-11-21T07:19:16;101585.50;;;9.38;100.00
72857;BME280;62742;52.136;4.500;2023-11-21T07:21:42;101596.00;;;9.45;100.00
72857;BME280;62742;52.136;4.500;2023-11-21T07:24:09;101608.25;;;9.43;100.00
72857;BME280;62742;52.136;4.500;2023-11-21T07:26:35;101607.38;;;9.46;100.00
72857;BME280;62742;52.136;4.500;2023-11-21T07:29:01;101618.75;;;9.43;100.00
72857;BME280;62742;52.136;4.500;2023-11-21T07:31:29;101621.38;;;9.49;100.00
72857;BME280;62742;52.136;4.500;2023-11-21T07:33:55;101623.13;;;9.52;100.00
72857;BME280;62742;52.136;4.500;2023-11-21T07:36:25;101632.75;;;9.54;100.00
72857;BME280;62742;52.136;4.500;2023-11-21T07:38:51;101619.66;;;9.64;100.00
72857;BME280;62742;52.136;4.500;2023-11-21T07:41:17;101623.13;;;9.61;100.00
72857;BME280;62742;52.136;4.500;2023-11-21T07:43:44;101631.03;;;9.55;100.00
72857;BME280;62742;52.136;4.500;2023-11-21T07:46:12;101624.91;;;9.67;100.00
72857;BME280;62742;52.136;4.500;2023-11-21T07:48:40;101628.41;;;9.69;100.00
72857;BME280;62742;52.136;4.500;2023-11-21T07:51:08;101631.03;;;9.66;100.00
72857;BME280;62742;52.136;4.500;2023-11-21T07:53:35;101638.91;;;9.69;100.00
72857;BME280;62742;52.136;4.500;2023-11-21T07:56:02;101640.66;;;9.74;100.00
72857;BME280;62742;52.136;4.500;2023-11-21T07:58:30;101643.28;;;9.78;100.00
72857;BME280;62742;52.136;4.500;2023-11-21T08:00:56;101647.66;;;9.86;100.00
72857;BME280;62742;52.136;4.500;2023-11-21T08:03:23;101649.41;;;9.97;100.00
72857;BME280;62742;52.136;4.500;2023-11-21T08:05:49;101664.28;;;9.95;100.00
72857;BME280;62742;52.136;4.500;2023-11-21T08:08:15;101666.03;;;9.91;100.00
72857;BME280;62742;52.136;4.500;2023-11-21T08:10:44;101666.03;;;9.97;100.00
72857;BME280;62742;52.136;4.500;2023-11-21T08:13:25;101680.06;;;9.98;100.00
72857;BME280;62742;52.136;4.500;2023-11-21T08:15:55;101680.06;;;9.98;100.00
72857;BME280;62742;52.136;4.500;2023-11-21T08:18:22;101679.19;;;10.08;100.00
72857;BME280;62742;52.136;4.500;2023-11-21T08:20:48;101685.28;;;10.05;100.00
72857;BME280;62742;52.136;4.500;2023-11-21T08:23:15;101684.41;;;10.05;100.00
72857;BME280;62742;52.136;4.500;2023-11-21T08:25:45;101685.28;;;10.11;100.00
72857;BME280;62742;52.136;4.500;2023-11-21T08:28:12;101687.91;;;10.07;100.00
72857;BME280;62742;52.136;4.500;2023-11-21T08:30:42;101689.66;;;10.13;100.00
72857;BME280;62742;52.136;4.500;2023-11-21T08:33:08;101696.69;;;10.17;100.00
72857;BME280;62742;52.136;4.500;2023-11-21T08:35:38;101680.91;;;10.18;100.00
72857;BME280;62742;52.136;4.500;2023-11-21T08:38:05;101687.06;;;10.09;100.00
72857;BME280;62742;52.136;4.500;2023-11-21T08:40:31;101680.91;;;10.10;100.00
72857;BME280;62742;52.136;4.500;2023-11-21T08:42:58;101684.41;;;10.20;100.00
72857;BME280;62742;52.136;4.500;2023-11-21T08:45:27;101691.41;;;10.27;100.00
72857;BME280;62742;52.136;4.500;2023-11-21T08:47:53;101692.31;;;10.34;100.00
72857;BME280;62742;52.136;4.500;2023-11-21T08:50:19;101697.56;;;10.36;100.00
72857;BME280;62742;52.136;4.500;2023-11-21T08:52:45;101701.06;;;10.36;100.00
72857;BME280;62742;52.136;4.500;2023-11-21T08:55:12;101707.19;;;10.37;100.00
72857;BME280;62742;52.136;4.500;2023-11-21T08:57:39;101713.28;;;10.28;100.00
72857;BME280;62742;52.136;4.500;2023-11-21T09:00:07;101715.97;;;10.36;100.00
72857;BME280;62742;52.136;4.500;2023-11-21T09:02:37;101727.31;;;10.30;100.00
72857;BME280;62742;52.136;4.500;2023-11-21T09:05:07;101728.22;;;10.34;100.00
72857;BME280;62742;52.136;4.500;2023-11-21T09:07:38;101729.97;;;10.33;100.00
72857;BME280;62742;52.136;4.500;2023-11-21T09:10:06;101736.09;;;10.44;100.00
72857;BME280;62742;52.136;4.500;2023-11-21T09:12:33;101733.47;;;10.37;100.00
72857;BME280;62742;52.136;4.500;2023-11-21T09:15:06;101732.59;;;10.44;100.00
72857;BME280;62742;52.136;4.500;2023-11-21T09:17:33;101743.97;;;10.37;100.00
72857;BME280;62742;52.136;4.500;2023-11-21T09:20:00;101753.59;;;10.52;100.00
72857;BME280;62742;52.136;4.500;2023-11-21T09:22:26;101748.34;;;10.69;100.00
72857;BME280;62742;52.136;4.500;2023-11-21T09:24:55;101761.50;;;10.59;100.00
72857;BME280;62742;52.136;4.500;2023-11-21T09:27:23;101758.88;;;10.62;100.00
72857;BME280;62742;52.136;4.500;2023-11-21T09:29:51;101770.25;;;10.55;100.00
72857;BME280;62742;52.136;4.500;2023-11-21T09:32:18;101781.66;;;10.54;100.00
72857;BME280;62742;52.136;4.500;2023-11-21T09:34:48;101778.13;;;10.41;100.00
72857;BME280;62742;52.136;4.500;2023-11-21T09:37:17;101793.00;;;10.50;100.00
72857;BME280;62742;52.136;4.500;2023-11-21T09:39:44;101800.91;;;10.61;100.00
72857;BME280;62742;52.136;4.500;2023-11-21T09:42:23;101800.06;;;10.57;100.00
72857;BME280;62742;52.136;4.500;2023-11-21T09:47:27;101814.91;;;10.57;100.00
72857;BME280;62742;52.136;4.500;2023-11-21T09:49:54;101821.06;;;10.57;100.00
72857;BME280;62742;52.136;4.500;2023-11-21T09:52:23;101825.44;;;10.34;100.00
72857;BME280;62742;52.136;4.500;2023-11-21T09:54:55;101832.44;;;10.50;100.00
72857;BME280;62742;52.136;4.500;2023-11-21T09:57:25;101849.97;;;10.60;100.00
72857;BME280;62742;52.136;4.500;2023-11-21T09:59:54;101849.09;;;10.47;100.00
72857;BME280;62742;52.136;4.500;2023-11-21T10:02:22;101852.59;;;10.54;100.00
72857;BME280;62742;52.136;4.500;2023-11-21T10:04:52;101854.28;;;10.27;100.00
72857;BME280;62742;52.136;4.500;2023-11-21T10:07:21;101856.03;;;10.28;100.00
72857;BME280;62742;52.136;4.500;2023-11-21T10:09:47;101862.22;;;10.44;100.00
72857;BME280;62742;52.136;4.500;2023-11-21T10:12:17;101867.44;;;10.38;100.00
72857;BME280;62742;52.136;4.500;2023-11-21T10:14:43;101862.22;;;10.46;100.00
72857;BME280;62742;52.136;4.500;2023-11-21T10:17:14;101877.97;;;10.38;100.00
72857;BME280;62742;52.136;4.500;2023-11-21T10:19:46;101871.84;;;10.41;100.00
72857;BME280;62742;52.136;4.500;2023-11-21T10:22:16;101885.00;;;10.56;100.00
72857;BME280;62742;52.136;4.500;2023-11-21T10:24:43;101878.84;;;10.45;100.00
72857;BME280;62742;52.136;4.500;2023-11-21T10:27:09;101878.88;;;10.39;100.00
72857;BME280;62742;52.136;4.500;2023-11-21T10:29:35;101888.47;;;10.34;100.00
72857;BME280;62742;52.136;4.500;2023-11-21T10:32:02;101894.59;;;10.33;100.00
72857;BME280;62742;52.136;4.500;2023-11-21T10:34:29;101899.84;;;10.42;100.00
72857;BME280;62742;52.136;4.500;2023-11-21T10:36:55;101905.09;;;10.33;100.00
72857;BME280;62742;52.136;4.500;2023-11-21T10:39:24;101907.78;;;10.40;100.00
72857;BME280;62742;52.136;4.500;2023-11-21T10:41:56;101906.91;;;10.61;100.00
72857;BME280;62742;52.136;4.500;2023-11-21T10:44:22;101910.41;;;10.60;100.00
72857;BME280;62742;52.136;4.500;2023-11-21T10:46:55;101911.31;;;10.61;100.00
72857;BME280;62742;52.136;4.500;2023-11-21T10:49:26;101908.69;;;10.61;100.00
72857;BME280;62742;52.136;4.500;2023-11-21T10:51:53;101916.53;;;10.50;100.00
72857;BME280;62742;52.136;4.500;2023-11-21T10:54:22;101916.53;;;10.52;100.00
72857;BME280;62742;52.136;4.500;2023-11-21T10:56:53;101920.06;;;10.64;100.00
72857;BME280;62742;52.136;4.500;2023-11-21T10:59:25;101920.06;;;10.63;100.00
72857;BME280;62742;52.136;4.500;2023-11-21T11:01:55;101925.31;;;10.71;100.00
72857;BME280;62742;52.136;4.500;2023-11-21T11:04:24;101918.34;;;10.70;100.00
72857;BME280;62742;52.136;4.500;2023-11-21T11:06:57;101921.84;;;10.75;100.00
72857;BME280;62742;52.136;4.500;2023-11-21T11:09:26;101920.97;;;10.87;100.00
72857;BME280;62742;52.136;4.500;2023-11-21T11:11:53;101926.22;;;10.85;100.00
72857;BME280;62742;52.136;4.500;2023-11-21T11:14:19;101930.59;;;10.74;100.00
72857;BME280;62742;52.136;4.500;2023-11-21T11:16:52;101931.47;;;10.74;100.00
72857;BME280;62742;52.136;4.500;2023-11-21T11:19:20;101932.34;;;10.84;100.00
72857;BME280;62742;52.136;4.500;2023-11-21T11:27:15;101939.38;;;11.13;100.00
72857;BME280;62742;52.136;4.500;2023-11-21T11:30:08;101937.63;;;11.01;100.00
72857;BME280;62742;52.136;4.500;2023-11-21T11:38:32;101939.38;;;11.10;100.00
72857;BME280;62742;52.136;4.500;2023-11-21T11:41:01;101942.00;;;11.25;100.00
72857;BME280;62742;52.136;4.500;2023-11-21T11:43:29;101936.75;;;11.31;99.79
72857;BME280;62742;52.136;4.500;2023-11-21T11:45:58;101944.63;;;11.37;100.00
72857;BME280;62742;52.136;4.500;2023-11-21T11:48:29;101954.28;;;11.23;100.00
72857;BME280;62742;52.136;4.500;2023-11-21T11:51:29;101951.66;;;11.08;100.00
72857;BME280;62742;52.136;4.500;2023-11-21T11:53:48;101956.03;;;11.27;100.00
72857;BME280;62742;52.136;4.500;2023-11-21T11:56:26;101960.41;;;11.05;100.00
72857;BME280;62742;52.136;4.500;2023-11-21T11:58:55;101957.81;;;11.14;99.89
72857;BME280;62742;52.136;4.500;2023-11-21T12:01:23;101946.38;;;11.15;100.00
72857;BME280;62742;52.136;4.500;2023-11-21T12:06:45;101958.66;;;11.36;98.09
72857;BME280;62742;52.136;4.500;2023-11-21T12:09:17;101965.66;;;11.62;96.86
72857;BME280;62742;52.136;4.500;2023-11-21T12:11:45;101969.19;;;11.35;96.57
72857;BME280;62742;52.136;4.500;2023-11-21T12:14:12;101975.34;;;11.28;96.63
72857;BME280;62742;52.136;4.500;2023-11-21T12:16:40;101975.34;;;11.28;97.77
72857;BME280;62742;52.136;4.500;2023-11-21T12:19:09;101973.56;;;11.47;95.96
72857;BME280;62742;52.136;4.500;2023-11-21T12:21:39;101977.06;;;11.67;95.33
72857;BME280;62742;52.136;4.500;2023-11-21T12:24:14;101977.94;;;11.62;95.46
72857;BME280;62742;52.136;4.500;2023-11-21T12:26:42;101977.94;;;11.58;94.85
72857;BME280;62742;52.136;4.500;2023-11-21T12:29:10;101986.72;;;11.47;94.59
72857;BME280;62742;52.136;4.500;2023-11-21T12:31:36;101992.84;;;11.59;94.21
72857;BME280;62742;52.136;4.500;2023-11-21T12:34:03;101992.84;;;11.46;94.45
72857;BME280;62742;52.136;4.500;2023-11-21T12:36:32;101995.53;;;11.41;94.85
72857;BME280;62742;52.136;4.500;2023-11-21T12:39:00;101998.13;;;11.10;96.57
72857;BME280;62742;52.136;4.500;2023-11-21T12:41:28;102000.75;;;11.04;97.19
72857;BME280;62742;52.136;4.500;2023-11-21T12:43:55;101996.38;;;11.17;95.62
72857;BME280;62742;52.136;4.500;2023-11-21T12:46:21;102004.28;;;11.23;96.44
72857;BME280;62742;52.136;4.500;2023-11-21T12:48:47;102008.66;;;11.21;93.22
72857;BME280;62742;52.136;4.500;2023-11-21T12:51:16;102012.13;;;10.89;94.94
72857;BME280;62742;52.136;4.500;2023-11-21T12:53:44;102005.16;;;11.19;96.06
72857;BME280;62742;52.136;4.500;2023-11-21T12:56:11;102013.94;;;11.55;92.96
72857;BME280;62742;52.136;4.500;2023-11-21T12:58:39;102012.16;;;11.63;93.86
72857;BME280;62742;52.136;4.500;2023-11-21T13:01:07;102026.19;;;11.70;94.03
72857;BME280;62742;52.136;4.500;2023-11-21T13:03:45;102029.72;;;11.55;93.70
72857;BME280;62742;52.136;4.500;2023-11-21T13:06:14;102028.84;;;11.60;94.16
72857;BME280;62742;52.136;4.500;2023-11-21T13:08:42;102027.94;;;11.69;94.22